Rabat, Morocco
Current Conditions -  °F | °C
As of 7:30 PM on Tuesday 27 Jan 2015 (Local Time) from GMME Reporting Station
Haze Haze  
Wind Chill: 52°   Ceiling: Unl
Heat Index: 52°   Visibility: 2.5mi
Dew Point: 50°   Wind: 1mph
Humidity: 94%   Direction: 220°SW
Pressure: 30.33"   Gusts: NA
Location:  34.02°N, 6.84°W
Report Text: GMME 271830Z 22001KT 4000 BR FEW010 SCT200 11/10 Q1027 NOSIG
Loading
Personal Weather Stations






























Interactive Weather Map New forecast layout! Learn more

10-Day Weather Forecast

Advertisements
Track Severe Weather on mobile